sensor_id;sensor_type;location;lat;lon;timestamp;temperature;humidity
52919;DHT22;38793;52.690;6.812;2023-11-21T00:00:21;8.50;99.90
52919;DHT22;38793;52.690;6.812;2023-11-21T00:02:47;8.50;99.90
52919;DHT22;38793;52.690;6.812;2023-11-21T00:05:13;8.50;99.90
52919;DHT22;38793;52.690;6.812;2023-11-21T00:07:43;8.50;99.90
52919;DHT22;38793;52.690;6.812;2023-11-21T00:10:09;8.50;99.90
52919;DHT22;38793;52.690;6.812;2023-11-21T00:12:35;8.50;99.90
52919;DHT22;38793;52.690;6.812;2023-11-21T00:15:01;8.50;99.90
52919;DHT22;38793;52.690;6.812;2023-11-21T00:17:27;8.50;99.90
52919;DHT22;38793;52.690;6.812;2023-11-21T00:19:53;8.40;99.90
52919;DHT22;38793;52.690;6.812;2023-11-21T00:22:19;8.40;99.90
52919;DHT22;38793;52.690;6.812;2023-11-21T00:24:45;8.50;99.90
52919;DHT22;38793;52.690;6.812;2023-11-21T00:27:11;8.40;99.90
52919;DHT22;38793;52.690;6.812;2023-11-21T00:29:37;8.40;99.90
52919;DHT22;38793;52.690;6.812;2023-11-21T00:32:04;8.40;99.90
52919;DHT22;38793;52.690;6.812;2023-11-21T00:34:31;8.40;99.90
52919;DHT22;38793;52.690;6.812;2023-11-21T00:36:57;8.40;99.90
52919;DHT22;38793;52.690;6.812;2023-11-21T00:39:22;8.40;99.90
52919;DHT22;38793;52.690;6.812;2023-11-21T00:41:48;8.40;99.90
52919;DHT22;38793;52.690;6.812;2023-11-21T00:44:14;8.40;99.90
52919;DHT22;38793;52.690;6.812;2023-11-21T00:46:39;8.40;99.90
52919;DHT22;38793;52.690;6.812;2023-11-21T00:49:05;8.40;99.90
52919;DHT22;38793;52.690;6.812;2023-11-21T00:51:30;8.40;99.90
52919;DHT22;38793;52.690;6.812;2023-11-21T00:53:57;8.40;99.90
52919;DHT22;38793;52.690;6.812;2023-11-21T00:56:23;8.40;99.90
52919;DHT22;38793;52.690;6.812;2023-11-21T00:58:49;8.40;99.90
52919;DHT22;38793;52.690;6.812;2023-11-21T01:01:18;8.40;99.90
52919;DHT22;38793;52.690;6.812;2023-11-21T01:03:45;8.40;99.90
52919;DHT22;38793;52.690;6.812;2023-11-21T01:06:11;8.40;99.90
52919;DHT22;38793;52.690;6.812;2023-11-21T01:08:37;8.50;99.90
52919;DHT22;38793;52.690;6.812;2023-11-21T01:11:02;8.50;99.90
52919;DHT22;38793;52.690;6.812;2023-11-21T01:13:28;8.50;99.90
52919;DHT22;38793;52.690;6.812;2023-11-21T01:15:55;8.50;99.90
52919;DHT22;38793;52.690;6.812;2023-11-21T01:18:21;8.50;99.90
52919;DHT22;38793;52.690;6.812;2023-11-21T01:20:46;8.50;99.90
52919;DHT22;38793;52.690;6.812;2023-11-21T01:23:13;8.50;99.90
52919;DHT22;38793;52.690;6.812;2023-11-21T01:25:39;8.60;99.90
52919;DHT22;38793;52.690;6.812;2023-11-21T01:28:04;8.60;99.90
52919;DHT22;38793;52.690;6.812;2023-11-21T01:30:30;8.60;99.90
52919;DHT22;38793;52.690;6.812;2023-11-21T01:32:58;8.60;99.90
52919;DHT22;38793;52.690;6.812;2023-11-21T01:35:23;8.60;99.90
52919;DHT22;38793;52.690;6.812;2023-11-21T01:37:49;8.60;99.90
52919;DHT22;38793;52.690;6.812;2023-11-21T01:40:14;8.60;99.90
52919;DHT22;38793;52.690;6.812;2023-11-21T01:42:41;8.60;99.90
52919;DHT22;38793;52.690;6.812;2023-11-21T01:45:09;8.70;99.90
52919;DHT22;38793;52.690;6.812;2023-11-21T01:47:35;8.70;99.90
52919;DHT22;38793;52.690;6.812;2023-11-21T01:50:02;8.70;99.90
52919;DHT22;38793;52.690;6.812;2023-11-21T01:52:30;8.70;99.90
52919;DHT22;38793;52.690;6.812;2023-11-21T01:54:56;8.70;99.90
52919;DHT22;38793;52.690;6.812;2023-11-21T01:57:22;8.70;99.90
52919;DHT22;38793;52.690;6.812;2023-11-21T01:59:48;8.70;99.90
52919;DHT22;38793;52.690;6.812;2023-11-21T02:02:15;8.70;99.90
52919;DHT22;38793;52.690;6.812;2023-11-21T02:04:41;8.70;99.90
52919;DHT22;38793;52.690;6.812;2023-11-21T02:07:07;8.70;99.90
52919;DHT22;38793;52.690;6.812;2023-11-21T02:09:32;8.70;99.90
52919;DHT22;38793;52.690;6.812;2023-11-21T02:12:03;8.70;99.90
52919;DHT22;38793;52.690;6.812;2023-11-21T02:14:30;8.70;99.90
52919;DHT22;38793;52.690;6.812;2023-11-21T02:16:57;8.70;99.90
52919;DHT22;38793;52.690;6.812;2023-11-21T02:19:22;8.70;99.90
52919;DHT22;38793;52.690;6.812;2023-11-21T02:21:52;8.70;99.90
52919;DHT22;38793;52.690;6.812;2023-11-21T02:24:21;8.70;99.90
52919;DHT22;38793;52.690;6.812;2023-11-21T02:26:48;8.70;99.90
52919;DHT22;38793;52.690;6.812;2023-11-21T02:29:14;8.70;99.90
52919;DHT22;38793;52.690;6.812;2023-11-21T02:31:43;8.70;99.90
52919;DHT22;38793;52.690;6.812;2023-11-21T02:34:16;8.80;99.90
52919;DHT22;38793;52.690;6.812;2023-11-21T02:36:42;8.70;99.90
52919;DHT22;38793;52.690;6.812;2023-11-21T02:39:08;8.70;99.90
52919;DHT22;38793;52.690;6.812;2023-11-21T02:41:34;8.70;99.90
52919;DHT22;38793;52.690;6.812;2023-11-21T02:44:00;8.70;99.90
52919;DHT22;38793;52.690;6.812;2023-11-21T02:46:26;8.70;99.90
52919;DHT22;38793;52.690;6.812;2023-11-21T02:48:52;8.70;99.90
52919;DHT22;38793;52.690;6.812;2023-11-21T02:51:19;8.70;99.90
52919;DHT22;38793;52.690;6.812;2023-11-21T02:53:45;8.70;99.90
52919;DHT22;38793;52.690;6.812;2023-11-21T02:56:12;8.70;99.90
52919;DHT22;38793;52.690;6.812;2023-11-21T02:58:41;8.70;99.90
52919;DHT22;38793;52.690;6.812;2023-11-21T03:01:07;8.70;99.90
52919;DHT22;38793;52.690;6.812;2023-11-21T03:03:32;8.70;99.90
52919;DHT22;38793;52.690;6.812;2023-11-21T03:05:58;8.70;99.90
52919;DHT22;38793;52.690;6.812;2023-11-21T03:08:23;8.70;99.90
52919;DHT22;38793;52.690;6.812;2023-11-21T03:10:49;8.70;99.90
52919;DHT22;38793;52.690;6.812;2023-11-21T03:13:15;8.70;99.90
52919;DHT22;38793;52.690;6.812;2023-11-21T03:15:40;8.70;99.90
52919;DHT22;38793;52.690;6.812;2023-11-21T03:18:08;8.70;99.90
52919;DHT22;38793;52.690;6.812;2023-11-21T03:20:33;8.70;99.90
52919;DHT22;38793;52.690;6.812;2023-11-21T03:23:00;8.70;99.90
52919;DHT22;38793;52.690;6.812;2023-11-21T03:25:25;8.70;99.90
52919;DHT22;38793;52.690;6.812;2023-11-21T03:27:51;8.70;99.90
52919;DHT22;38793;52.690;6.812;2023-11-21T03:30:17;8.70;99.90
52919;DHT22;38793;52.690;6.812;2023-11-21T03:32:43;8.70;99.90
52919;DHT22;38793;52.690;6.812;2023-11-21T03:35:08;8.70;99.90
52919;DHT22;38793;52.690;6.812;2023-11-21T03:37:34;8.70;99.90
52919;DHT22;38793;52.690;6.812;2023-11-21T03:39:59;8.70;99.90
52919;DHT22;38793;52.690;6.812;2023-11-21T03:42:25;8.70;99.90
52919;DHT22;38793;52.690;6.812;2023-11-21T03:44:52;8.70;99.90
52919;DHT22;38793;52.690;6.812;2023-11-21T03:47:17;8.70;99.90
52919;DHT22;38793;52.690;6.812;2023-11-21T03:49:44;8.80;99.90
52919;DHT22;38793;52.690;6.812;2023-11-21T03:52:11;8.70;99.90
52919;DHT22;38793;52.690;6.812;2023-11-21T03:54:37;8.70;99.90
52919;DHT22;38793;52.690;6.812;2023-11-21T03:57:03;8.70;99.90
52919;DHT22;38793;52.690;6.812;2023-11-21T03:59:29;8.70;99.90
52919;DHT22;38793;52.690;6.812;2023-11-21T04:01:57;8.70;99.90
52919;DHT22;38793;52.690;6.812;2023-11-21T04:04:23;8.70;99.90
52919;DHT22;38793;52.690;6.812;2023-11-21T04:06:48;8.70;99.90
52919;DHT22;38793;52.690;6.812;2023-11-21T04:09:14;8.70;99.90
52919;DHT22;38793;52.690;6.812;2023-11-21T04:11:40;8.70;99.90
52919;DHT22;38793;52.690;6.812;2023-11-21T04:14:05;8.70;99.90
52919;DHT22;38793;52.690;6.812;2023-11-21T04:16:31;8.80;99.90
52919;DHT22;38793;52.690;6.812;2023-11-21T04:18:56;8.70;99.90
52919;DHT22;38793;52.690;6.812;2023-11-21T04:21:22;8.80;99.90
52919;DHT22;38793;52.690;6.812;2023-11-21T04:23:49;8.70;99.90
52919;DHT22;38793;52.690;6.812;2023-11-21T04:26:15;8.80;99.90
52919;DHT22;38793;52.690;6.812;2023-11-21T04:28:40;8.80;99.90
52919;DHT22;38793;52.690;6.812;2023-11-21T04:31:06;8.70;99.90
52919;DHT22;38793;52.690;6.812;2023-11-21T04:33:32;8.80;99.90
52919;DHT22;38793;52.690;6.812;2023-11-21T04:35:58;8.70;99.90
52919;DHT22;38793;52.690;6.812;2023-11-21T04:38:23;8.70;99.90
52919;DHT22;38793;52.690;6.812;2023-11-21T04:40:49;8.80;99.90
52919;DHT22;38793;52.690;6.812;2023-11-21T04:43:15;8.80;99.90
52919;DHT22;38793;52.690;6.812;2023-11-21T04:45:40;8.70;99.90
52919;DHT22;38793;52.690;6.812;2023-11-21T04:48:07;8.70;99.90
52919;DHT22;38793;52.690;6.812;2023-11-21T04:50:34;8.70;99.90
52919;DHT22;38793;52.690;6.812;2023-11-21T04:52:59;8.70;99.90
52919;DHT22;38793;52.690;6.812;2023-11-21T04:55:25;8.70;99.90
52919;DHT22;38793;52.690;6.812;2023-11-21T04:57:53;8.70;99.90
52919;DHT22;38793;52.690;6.812;2023-11-21T05:00:19;8.70;99.90
52919;DHT22;38793;52.690;6.812;2023-11-21T05:02:46;8.70;99.90
52919;DHT22;38793;52.690;6.812;2023-11-21T05:05:12;8.70;99.90
52919;DHT22;38793;52.690;6.812;2023-11-21T05:07:41;8.70;99.90
52919;DHT22;38793;52.690;6.812;2023-11-21T05:10:08;8.70;99.90
52919;DHT22;38793;52.690;6.812;2023-11-21T05:12:37;8.70;99.90
52919;DHT22;38793;52.690;6.812;2023-11-21T05:15:04;8.70;99.90
52919;DHT22;38793;52.690;6.812;2023-11-21T05:17:33;8.70;99.90
52919;DHT22;38793;52.690;6.812;2023-11-21T05:20:00;8.70;99.90
52919;DHT22;38793;52.690;6.812;2023-11-21T05:22:29;8.70;99.90
52919;DHT22;38793;52.690;6.812;2023-11-21T05:24:55;8.70;99.90
52919;DHT22;38793;52.690;6.812;2023-11-21T05:27:21;8.70;99.90
52919;DHT22;38793;52.690;6.812;2023-11-21T05:29:46;8.70;99.90
52919;DHT22;38793;52.690;6.812;2023-11-21T05:32:12;8.70;99.90
52919;DHT22;38793;52.690;6.812;2023-11-21T05:34:38;8.70;99.90
52919;DHT22;38793;52.690;6.812;2023-11-21T05:37:03;8.70;99.90
52919;DHT22;38793;52.690;6.812;2023-11-21T05:39:31;8.80;99.90
52919;DHT22;38793;52.690;6.812;2023-11-21T05:41:57;8.70;99.90
52919;DHT22;38793;52.690;6.812;2023-11-21T05:44:23;8.80;99.90
52919;DHT22;38793;52.690;6.812;2023-11-21T05:46:49;8.80;99.90
52919;DHT22;38793;52.690;6.812;2023-11-21T05:49:15;8.80;99.90
52919;DHT22;38793;52.690;6.812;2023-11-21T05:51:41;8.80;99.90
52919;DHT22;38793;52.690;6.812;2023-11-21T05:54:07;8.80;99.90
52919;DHT22;38793;52.690;6.812;2023-11-21T05:56:34;8.80;99.90
52919;DHT22;38793;52.690;6.812;2023-11-21T05:58:59;8.80;99.90
52919;DHT22;38793;52.690;6.812;2023-11-21T06:01:26;8.80;99.90
52919;DHT22;38793;52.690;6.812;2023-11-21T06:03:54;8.80;99.90
52919;DHT22;38793;52.690;6.812;2023-11-21T06:06:20;8.80;99.90
52919;DHT22;38793;52.690;6.812;2023-11-21T06:08:48;8.90;99.90
52919;DHT22;38793;52.690;6.812;2023-11-21T06:11:14;8.80;99.90
52919;DHT22;38793;52.690;6.812;2023-11-21T06:13:39;8.90;99.90
52919;DHT22;38793;52.690;6.812;2023-11-21T06:16:05;8.90;99.90
52919;DHT22;38793;52.690;6.812;2023-11-21T06:18:31;8.90;99.90
52919;DHT22;38793;52.690;6.812;2023-11-21T06:20:57;8.80;99.90
52919;DHT22;38793;52.690;6.812;2023-11-21T06:23:23;8.90;99.90
52919;DHT22;38793;52.690;6.812;2023-11-21T06:25:49;8.90;99.90
52919;DHT22;38793;52.690;6.812;2023-11-21T06:28:14;8.90;99.90
52919;DHT22;38793;52.690;6.812;2023-11-21T06:30:43;8.90;99.90
52919;DHT22;38793;52.690;6.812;2023-11-21T06:33:09;8.90;99.90
52919;DHT22;38793;52.690;6.812;2023-11-21T06:35:35;8.90;99.90
52919;DHT22;38793;52.690;6.812;2023-11-21T06:38:01;8.90;99.90
52919;DHT22;38793;52.690;6.812;2023-11-21T06:40:28;8.90;99.90
52919;DHT22;38793;52.690;6.812;2023-11-21T06:42:53;8.90;99.90
52919;DHT22;38793;52.690;6.812;2023-11-21T06:45:19;8.90;99.90
52919;DHT22;38793;52.690;6.812;2023-11-21T06:47:45;8.90;99.90
52919;DHT22;38793;52.690;6.812;2023-11-21T06:50:11;8.90;99.90
52919;DHT22;38793;52.690;6.812;2023-11-21T06:52:37;8.90;99.90
52919;DHT22;38793;52.690;6.812;2023-11-21T06:55:04;8.90;99.90
52919;DHT22;38793;52.690;6.812;2023-11-21T06:57:30;8.90;99.90
52919;DHT22;38793;52.690;6.812;2023-11-21T06:59:56;8.90;99.90
52919;DHT22;38793;52.690;6.812;2023-11-21T07:02:23;8.90;99.90
52919;DHT22;38793;52.690;6.812;2023-11-21T07:04:49;8.90;99.90
52919;DHT22;38793;52.690;6.812;2023-11-21T07:07:14;8.90;99.90
52919;DHT22;38793;52.690;6.812;2023-11-21T07:09:40;8.90;99.90
52919;DHT22;38793;52.690;6.812;2023-11-21T07:12:06;9.00;99.90
52919;DHT22;38793;52.690;6.812;2023-11-21T07:14:36;8.90;99.90
52919;DHT22;38793;52.690;6.812;2023-11-21T07:17:02;9.00;99.90
52919;DHT22;38793;52.690;6.812;2023-11-21T07:19:28;9.00;99.90
52919;DHT22;38793;52.690;6.812;2023-11-21T07:21:54;9.00;99.90
52919;DHT22;38793;52.690;6.812;2023-11-21T07:24:20;9.00;99.90
52919;DHT22;38793;52.690;6.812;2023-11-21T07:26:46;9.00;99.90
52919;DHT22;38793;52.690;6.812;2023-11-21T07:29:13;9.00;99.90
52919;DHT22;38793;52.690;6.812;2023-11-21T07:31:39;9.00;99.90
52919;DHT22;38793;52.690;6.812;2023-11-21T07:34:05;9.00;99.90
52919;DHT22;38793;52.690;6.812;2023-11-21T07:36:31;9.00;99.90
52919;DHT22;38793;52.690;6.812;2023-11-21T07:38:57;9.00;99.90
52919;DHT22;38793;52.690;6.812;2023-11-21T07:41:22;9.00;99.90
52919;DHT22;38793;52.690;6.812;2023-11-21T07:43:48;9.00;99.90
52919;DHT22;38793;52.690;6.812;2023-11-21T07:46:14;9.10;99.90
52919;DHT22;38793;52.690;6.812;2023-11-21T07:48:40;9.10;99.90
52919;DHT22;38793;52.690;6.812;2023-11-21T07:51:07;9.10;99.90
52919;DHT22;38793;52.690;6.812;2023-11-21T07:53:34;9.10;99.90
52919;DHT22;38793;52.690;6.812;2023-11-21T07:56:04;9.10;99.90
52919;DHT22;38793;52.690;6.812;2023-11-21T07:58:30;9.10;99.90
52919;DHT22;38793;52.690;6.812;2023-11-21T08:00:56;9.10;99.90
52919;DHT22;38793;52.690;6.812;2023-11-21T08:03:22;9.10;99.90
52919;DHT22;38793;52.690;6.812;2023-11-21T08:05:48;9.10;99.90
52919;DHT22;38793;52.690;6.812;2023-11-21T08:08:13;9.10;99.90
52919;DHT22;38793;52.690;6.812;2023-11-21T08:10:39;9.10;99.90
52919;DHT22;38793;52.690;6.812;2023-11-21T08:13:05;9.10;99.90
52919;DHT22;38793;52.690;6.812;2023-11-21T08:15:31;9.20;99.90
52919;DHT22;38793;52.690;6.812;2023-11-21T08:17:58;9.10;99.90
52919;DHT22;38793;52.690;6.812;2023-11-21T08:20:24;9.20;99.90
52919;DHT22;38793;52.690;6.812;2023-11-21T08:22:50;9.20;99.90
52919;DHT22;38793;52.690;6.812;2023-11-21T08:25:17;9.30;99.90
52919;DHT22;38793;52.690;6.812;2023-11-21T08:27:45;9.30;99.90
52919;DHT22;38793;52.690;6.812;2023-11-21T08:30:11;9.30;99.90
52919;DHT22;38793;52.690;6.812;2023-11-21T08:32:38;9.40;99.90
52919;DHT22;38793;52.690;6.812;2023-11-21T08:35:03;9.40;99.90
52919;DHT22;38793;52.690;6.812;2023-11-21T08:37:30;9.40;99.90
52919;DHT22;38793;52.690;6.812;2023-11-21T08:39:58;9.50;99.90
52919;DHT22;38793;52.690;6.812;2023-11-21T08:42:27;9.50;99.90
52919;DHT22;38793;52.690;6.812;2023-11-21T08:44:56;9.50;99.90
52919;DHT22;38793;52.690;6.812;2023-11-21T08:47:23;9.50;99.90
52919;DHT22;38793;52.690;6.812;2023-11-21T08:49:50;9.60;99.90
52919;DHT22;38793;52.690;6.812;2023-11-21T08:52:18;9.60;99.90
52919;DHT22;38793;52.690;6.812;2023-11-21T08:54:46;9.70;99.90
52919;DHT22;38793;52.690;6.812;2023-11-21T08:57:11;9.70;99.90
52919;DHT22;38793;52.690;6.812;2023-11-21T08:59:37;9.70;99.90
52919;DHT22;38793;52.690;6.812;2023-11-21T09:02:03;9.80;99.90
52919;DHT22;38793;52.690;6.812;2023-11-21T09:04:28;9.80;99.90
52919;DHT22;38793;52.690;6.812;2023-11-21T09:06:54;9.80;99.90
52919;DHT22;38793;52.690;6.812;2023-11-21T09:09:19;9.80;99.90
52919;DHT22;38793;52.690;6.812;2023-11-21T09:11:45;9.80;99.90
52919;DHT22;38793;52.690;6.812;2023-11-21T09:14:11;9.80;99.90
52919;DHT22;38793;52.690;6.812;2023-11-21T09:16:40;9.80;99.90
52919;DHT22;38793;52.690;6.812;2023-11-21T09:19:06;9.80;99.90
52919;DHT22;38793;52.690;6.812;2023-11-21T09:21:32;9.80;99.90
52919;DHT22;38793;52.690;6.812;2023-11-21T09:23:58;9.80;99.90
52919;DHT22;38793;52.690;6.812;2023-11-21T09:26:24;9.80;99.90
52919;DHT22;38793;52.690;6.812;2023-11-21T09:28:49;9.70;99.90
52919;DHT22;38793;52.690;6.812;2023-11-21T09:31:15;9.70;99.90
52919;DHT22;38793;52.690;6.812;2023-11-21T09:33:48;9.70;99.90
52919;DHT22;38793;52.690;6.812;2023-11-21T09:36:14;9.70;99.90
52919;DHT22;38793;52.690;6.812;2023-11-21T09:38:42;9.70;99.90
52919;DHT22;38793;52.690;6.812;2023-11-21T09:41:19;9.70;99.90
52919;DHT22;38793;52.690;6.812;2023-11-21T09:43:47;9.60;99.90
52919;DHT22;38793;52.690;6.812;2023-11-21T09:46:18;9.60;99.90
52919;DHT22;38793;52.690;6.812;2023-11-21T09:48:50;9.60;99.90
52919;DHT22;38793;52.690;6.812;2023-11-21T09:51:21;9.60;99.90
52919;DHT22;38793;52.690;6.812;2023-11-21T09:53:49;9.60;99.90
52919;DHT22;38793;52.690;6.812;2023-11-21T09:56:17;9.60;99.90
52919;DHT22;38793;52.690;6.812;2023-11-21T09:58:51;9.60;99.90
52919;DHT22;38793;52.690;6.812;2023-11-21T10:01:18;9.50;99.90
52919;DHT22;38793;52.690;6.812;2023-11-21T10:03:44;9.50;99.90
52919;DHT22;38793;52.690;6.812;2023-11-21T10:06:12;9.50;99.90
52919;DHT22;38793;52.690;6.812;2023-11-21T10:08:40;9.40;99.90
52919;DHT22;38793;52.690;6.812;2023-11-21T10:11:07;9.40;99.90
52919;DHT22;38793;52.690;6.812;2023-11-21T10:13:34;9.40;99.90
52919;DHT22;38793;52.690;6.812;2023-11-21T10:16:00;9.40;99.90
52919;DHT22;38793;52.690;6.812;2023-11-21T10:18:29;9.40;99.90
52919;DHT22;38793;52.690;6.812;2023-11-21T10:20:56;9.40;99.90
52919;DHT22;38793;52.690;6.812;2023-11-21T10:23:22;9.30;99.90
52919;DHT22;38793;52.690;6.812;2023-11-21T10:25:48;9.30;99.90
52919;DHT22;38793;52.690;6.812;2023-11-21T10:28:16;9.30;99.90
52919;DHT22;38793;52.690;6.812;2023-11-21T10:30:41;9.30;99.90
52919;DHT22;38793;52.690;6.812;2023-11-21T10:33:08;9.20;99.90
52919;DHT22;38793;52.690;6.812;2023-11-21T10:35:48;9.20;99.90
52919;DHT22;38793;52.690;6.812;2023-11-21T10:38:17;9.20;99.90
52919;DHT22;38793;52.690;6.812;2023-11-21T10:40:44;9.20;99.90
52919;DHT22;38793;52.690;6.812;2023-11-21T10:43:11;9.20;99.90
52919;DHT22;38793;52.690;6.812;2023-11-21T10:45:41;9.20;99.90
52919;DHT22;38793;52.690;6.812;2023-11-21T10:48:13;9.20;99.90
52919;DHT22;38793;52.690;6.812;2023-11-21T10:50:46;9.20;99.90
52919;DHT22;38793;52.690;6.812;2023-11-21T10:53:12;9.30;99.90
52919;DHT22;38793;52.690;6.812;2023-11-21T10:55:38;9.30;99.90
52919;DHT22;38793;52.690;6.812;2023-11-21T10:58:04;9.30;99.90
52919;DHT22;38793;52.690;6.812;2023-11-21T11:00:32;9.40;99.90
52919;DHT22;38793;52.690;6.812;2023-11-21T11:02:58;9.40;99.90
52919;DHT22;38793;52.690;6.812;2023-11-21T11:05:26;9.40;99.90
52919;DHT22;38793;52.690;6.812;2023-11-21T11:07:58;9.50;99.90
52919;DHT22;38793;52.690;6.812;2023-11-21T11:10:30;9.50;99.90
52919;DHT22;38793;52.690;6.812;2023-11-21T11:12:56;9.50;99.90
52919;DHT22;38793;52.690;6.812;2023-11-21T11:15:23;9.50;99.90
52919;DHT22;38793;52.690;6.812;2023-11-21T11:17:49;9.50;99.90
52919;DHT22;38793;52.690;6.812;2023-11-21T11:20:16;9.50;99.90
52919;DHT22;38793;52.690;6.812;2023-11-21T11:25:39;9.40;99.90
52919;DHT22;38793;52.690;6.812;2023-11-21T11:28:19;9.50;99.90
52919;DHT22;38793;52.690;6.812;2023-11-21T11:34:23;9.50;99.90
52919;DHT22;38793;52.690;6.812;2023-11-21T11:37:02;9.40;99.90
52919;DHT22;38793;52.690;6.812;2023-11-21T11:42:08;9.50;99.90
52919;DHT22;38793;52.690;6.812;2023-11-21T11:47:32;9.50;99.90
52919;DHT22;38793;52.690;6.812;2023-11-21T11:52:49;9.50;99.90
52919;DHT22;38793;52.690;6.812;2023-11-21T11:55:18;9.50;99.90
52919;DHT22;38793;52.690;6.812;2023-11-21T11:57:45;9.40;99.90
52919;DHT22;38793;52.690;6.812;2023-11-21T12:00:22;9.40;99.90
52919;DHT22;38793;52.690;6.812;2023-11-21T12:02:52;9.40;99.90
52919;DHT22;38793;52.690;6.812;2023-11-21T12:05:22;9.40;99.90
52919;DHT22;38793;52.690;6.812;2023-11-21T12:07:49;9.40;99.90
52919;DHT22;38793;52.690;6.812;2023-11-21T12:10:17;9.40;99.90
52919;DHT22;38793;52.690;6.812;2023-11-21T12:12:49;9.40;99.90
52919;DHT22;38793;52.690;6.812;2023-11-21T12:15:16;9.40;99.90
52919;DHT22;38793;52.690;6.812;2023-11-21T12:17:42;9.40;99.90
52919;DHT22;38793;52.690;6.812;2023-11-21T12:20:09;9.40;99.90
52919;DHT22;38793;52.690;6.812;2023-11-21T12:22:48;9.40;99.90
52919;DHT22;38793;52.690;6.812;2023-11-21T12:25:18;9.30;99.90
52919;DHT22;38793;52.690;6.812;2023-11-21T12:27:53;9.40;99.90
52919;DHT22;38793;52.690;6.812;2023-11-21T12:30:24;9.40;99.90
52919;DHT22;38793;52.690;6.812;2023-11-21T12:32:54;9.30;99.90
52919;DHT22;38793;52.690;6.812;2023-11-21T12:35:28;9.40;99.90
52919;DHT22;38793;52.690;6.812;2023-11-21T12:37:56;9.40;99.90
52919;DHT22;38793;52.690;6.812;2023-11-21T12:40:25;9.30;99.90
52919;DHT22;38793;52.690;6.812;2023-11-21T12:42:57;9.40;99.90
52919;DHT22;38793;52.690;6.812;2023-11-21T12:45:25;9.30;99.90
52919;DHT22;38793;52.690;6.812;2023-11-21T12:47:57;9.30;99.90
52919;DHT22;38793;52.690;6.812;2023-11-21T12:50:30;9.30;99.90
52919;DHT22;38793;52.690;6.812;2023-11-21T12:53:10;9.30;99.90
52919;DHT22;38793;52.690;6.812;2023-11-21T12:55:38;9.30;99.90
52919;DHT22;38793;52.690;6.812;2023-11-21T12:58:08;9.30;99.90
52919;DHT22;38793;52.690;6.812;2023-11-21T13:00:39;9.30;99.90
52919;DHT22;38793;52.690;6.812;2023-11-21T13:03:09;9.30;99.90
52919;DHT22;38793;52.690;6.812;2023-11-21T13:05:38;9.30;99.90
52919;DHT22;38793;52.690;6.812;2023-11-21T13:08:06;9.30;99.90
52919;DHT22;38793;52.690;6.812;2023-11-21T13:10:39;9.30;99.90
52919;DHT22;38793;52.690;6.812;2023-11-21T13:13:07;9.30;99.90
52919;DHT22;38793;52.690;6.812;2023-11-21T13:15:40;9.30;99.90
52919;DHT22;38793;52.690;6.812;2023-11-21T13:18:06;9.30;99.90
52919;DHT22;38793;52.690;6.812;2023-11-21T13:20:32;9.30;99.90
52919;DHT22;38793;52.690;6.812;2023-11-21T13:22:58;9.40;99.90
52919;DHT22;38793;52.690;6.812;2023-11-21T13:25:28;9.40;99.90
52919;DHT22;38793;52.690;6.812;2023-11-21T13:27:54;9.50;99.90
52919;DHT22;38793;52.690;6.812;2023-11-21T13:30:20;9.70;99.90
52919;DHT22;38793;52.690;6.812;2023-11-21T13:32:55;10.20;99.90
52919;DHT22;38793;52.690;6.812;2023-11-21T13:35:23;10.70;99.90
52919;DHT22;38793;52.690;6.812;2023-11-21T13:38:12;10.90;99.90
52919;DHT22;38793;52.690;6.812;2023-11-21T13:40:39;10.80;99.90
52919;DHT22;38793;52.690;6.812;2023-11-21T13:43:10;10.70;99.90
52919;DHT22;38793;52.690;6.812;2023-11-21T13:45:37;10.60;99.90
52919;DHT22;38793;52.690;6.812;2023-11-21T13:48:05;10.40;99.90
52919;DHT22;38793;52.690;6.812;2023-11-21T13:50:39;10.30;99.90
52919;DHT22;38793;52.690;6.812;2023-11-21T13:53:10;10.10;99.90
52919;DHT22;38793;52.690;6.812;2023-11-21T13:55:51;10.00;99.90
52919;DHT22;38793;52.690;6.812;2023-11-21T13:58:20;9.90;99.90
52919;DHT22;38793;52.690;6.812;2023-11-21T14:00:50;9.80;99.90
52919;DHT22;38793;52.690;6.812;2023-11-21T14:03:25;9.70;99.90
52919;DHT22;38793;52.690;6.812;2023-11-21T14:06:03;9.60;99.90
52919;DHT22;38793;52.690;6.812;2023-11-21T14:08:34;9.50;99.90
52919;DHT22;38793;52.690;6.812;2023-11-21T14:11:00;9.50;99.90
52919;DHT22;38793;52.690;6.812;2023-11-21T14:13:28;9.50;99.90
52919;DHT22;38793;52.690;6.812;2023-11-21T14:15:54;9.60;99.90
52919;DHT22;38793;52.690;6.812;2023-11-21T14:18:23;10.00;99.90
52919;DHT22;38793;52.690;6.812;2023-11-21T14:20:56;10.30;99.90
52919;DHT22;38793;52.690;6.812;2023-11-21T14:23:22;10.50;99.90
52919;DHT22;38793;52.690;6.812;2023-11-21T14:25:49;10.60;99.90
52919;DHT22;38793;52.690;6.812;2023-11-21T14:28:16;11.00;99.90
52919;DHT22;38793;52.690;6.812;2023-11-21T14:30:42;11.30;99.90
52919;DHT22;38793;52.690;6.812;2023-11-21T14:33:08;11.30;99.90
52919;DHT22;38793;52.690;6.812;2023-11-21T14:35:35;11.20;99.90
52919;DHT22;38793;52.690;6.812;2023-11-21T14:38:02;11.00;99.90
52919;DHT22;38793;52.690;6.812;2023-11-21T14:40:31;10.80;99.90
52919;DHT22;38793;52.690;6.812;2023-11-21T14:43:00;10.60;99.90
52919;DHT22;38793;52.690;6.812;2023-11-21T14:45:26;10.40;99.90
52919;DHT22;38793;52.690;6.812;2023-11-21T14:47:52;10.30;99.90
52919;DHT22;38793;52.690;6.812;2023-11-21T14:50:30;10.10;99.90
52919;DHT22;38793;52.690;6.812;2023-11-21T14:53:15;9.90;99.90
52919;DHT22;38793;52.690;6.812;2023-11-21T14:55:40;9.80;99.90
52919;DHT22;38793;52.690;6.812;2023-11-21T14:58:15;9.70;99.90
52919;DHT22;38793;52.690;6.812;2023-11-21T15:00:47;9.60;99.90
52919;DHT22;38793;52.690;6.812;2023-11-21T15:03:13;9.60;99.90
52919;DHT22;38793;52.690;6.812;2023-11-21T15:06:05;9.50;99.90
52919;DHT22;38793;52.690;6.812;2023-11-21T15:08:58;9.40;99.90
52919;DHT22;38793;52.690;6.812;2023-11-21T15:11:34;9.30;99.90
52919;DHT22;38793;52.690;6.812;2023-11-21T15:13:59;9.30;99.90
52919;DHT22;38793;52.690;6.812;2023-11-21T15:16:26;9.20;99.90
52919;DHT22;38793;52.690;6.812;2023-11-21T15:18:52;9.20;99.90
52919;DHT22;38793;52.690;6.812;2023-11-21T15:21:21;9.10;99.90
52919;DHT22;38793;52.690;6.812;2023-11-21T15:23:48;9.10;99.90
52919;DHT22;38793;52.690;6.812;2023-11-21T15:26:13;9.10;99.90
52919;DHT22;38793;52.690;6.812;2023-11-21T15:28:39;9.00;99.90
52919;DHT22;38793;52.690;6.812;2023-11-21T15:31:05;9.00;99.90
52919;DHT22;38793;52.690;6.812;2023-11-21T15:33:32;9.00;99.90
52919;DHT22;38793;52.690;6.812;2023-11-21T15:35:59;8.90;99.90
52919;DHT22;38793;52.690;6.812;2023-11-21T15:38:24;8.90;99.90
52919;DHT22;38793;52.690;6.812;2023-11-21T15:40:50;8.90;99.90
52919;DHT22;38793;52.690;6.812;2023-11-21T15:43:16;8.80;99.90
52919;DHT22;38793;52.690;6.812;2023-11-21T15:45:41;8.80;99.90
52919;DHT22;38793;52.690;6.812;2023-11-21T15:48:07;8.80;99.90
52919;DHT22;38793;52.690;6.812;2023-11-21T15:50:35;8.80;99.90
52919;DHT22;38793;52.690;6.812;2023-11-21T15:53:01;8.80;99.90
52919;DHT22;38793;52.690;6.812;2023-11-21T15:55:28;8.80;99.90
52919;DHT22;38793;52.690;6.812;2023-11-21T15:57:54;8.80;99.90
52919;DHT22;38793;52.690;6.812;2023-11-21T16:00:20;8.70;99.90